sensor_id;sensor_type;location;lat;lon;timestamp;pressure;altitude;pressure_sealevel;temperature;humidity
77023;BME280;65952;51.440;-2.054;2023-02-01T00:01:48;101293.47;;;5.32;72.97
77023;BME280;65952;51.440;-2.054;2023-02-01T00:04:13;101294.09;;;5.35;72.94
77023;BME280;65952;51.440;-2.054;2023-02-01T00:06:39;101301.69;;;5.29;73.08
77023;BME280;65952;51.440;-2.054;2023-02-01T00:09:04;101298.28;;;5.27;73.21
77023;BME280;65952;51.440;-2.054;2023-02-01T00:11:30;101295.31;;;5.18;73.38
77023;BME280;65952;51.440;-2.054;2023-02-01T00:13:56;101282.53;;;5.24;72.96
77023;BME280;65952;51.440;-2.054;2023-02-01T00:16:24;101283.25;;;5.26;72.89
77023;BME280;65952;51.440;-2.054;2023-02-01T00:18:51;101287.63;;;5.27;72.71
77023;BME280;65952;51.440;-2.054;2023-02-01T00:21:20;101283.88;;;5.29;72.57
77023;BME280;65952;51.440;-2.054;2023-02-01T00:23:46;101293.81;;;5.27;72.59
77023;BME280;65952;51.440;-2.054;2023-02-01T00:26:15;101283.81;;;5.31;72.46
77023;BME280;65952;51.440;-2.054;2023-02-01T00:28:41;101289.75;;;5.21;72.73
77023;BME280;65952;51.440;-2.054;2023-02-01T00:31:06;101291.03;;;5.29;72.36
77023;BME280;65952;51.440;-2.054;2023-02-01T00:33:33;101286.59;;;5.16;72.89
77023;BME280;65952;51.440;-2.054;2023-02-01T00:36:00;101289.66;;;5.23;72.59
77023;BME280;65952;51.440;-2.054;2023-02-01T00:38:26;101281.06;;;5.19;72.49
77023;BME280;65952;51.440;-2.054;2023-02-01T00:40:53;101280.41;;;5.16;72.59
77023;BME280;65952;51.440;-2.054;2023-02-01T00:43:18;101269.53;;;5.19;72.08
77023;BME280;65952;51.440;-2.054;2023-02-01T00:45:45;101279.13;;;5.21;72.07
77023;BME280;65952;51.440;-2.054;2023-02-01T00:48:11;101265.69;;;5.23;71.71
77023;BME280;65952;51.440;-2.054;2023-02-01T00:50:41;101270.28;;;5.21;71.77
77023;BME280;65952;51.440;-2.054;2023-02-01T00:53:08;101267.84;;;5.18;71.91
77023;BME280;65952;51.440;-2.054;2023-02-01T00:55:34;101274.22;;;5.15;72.03
77023;BME280;65952;51.440;-2.054;2023-02-01T00:57:59;101280.19;;;5.19;72.00
77023;BME280;65952;51.440;-2.054;2023-02-01T01:00:25;101278.72;;;5.15;71.98
77023;BME280;65952;51.440;-2.054;2023-02-01T01:02:50;101271.69;;;5.14;72.05
77023;BME280;65952;51.440;-2.054;2023-02-01T01:05:16;101270.63;;;5.16;71.93
77023;BME280;65952;51.440;-2.054;2023-02-01T01:07:41;101268.59;;;5.20;71.68
77023;BME280;65952;51.440;-2.054;2023-02-01T01:10:07;101267.19;;;5.14;71.75
77023;BME280;65952;51.440;-2.054;2023-02-01T01:12:32;101271.34;;;5.05;72.33
77023;BME280;65952;51.440;-2.054;2023-02-01T01:14:58;101270.09;;;5.11;72.04
77023;BME280;65952;51.440;-2.054;2023-02-01T01:17:23;101271.34;;;5.05;72.29
77023;BME280;65952;51.440;-2.054;2023-02-01T01:19:48;101253.81;;;5.03;72.21
77023;BME280;65952;51.440;-2.054;2023-02-01T01:22:14;101258.91;;;5.06;72.07
77023;BME280;65952;51.440;-2.054;2023-02-01T01:24:39;101263.38;;;5.05;72.14
77023;BME280;65952;51.440;-2.054;2023-02-01T01:27:05;101259.47;;;4.98;72.51
77023;BME280;65952;51.440;-2.054;2023-02-01T01:29:30;101256.56;;;5.01;72.27
77023;BME280;65952;51.440;-2.054;2023-02-01T01:31:58;101257.66;;;4.99;72.61
77023;BME280;65952;51.440;-2.054;2023-02-01T01:34:23;101273.28;;;5.03;71.84
77023;BME280;65952;51.440;-2.054;2023-02-01T01:36:49;101272.97;;;5.08;72.04
77023;BME280;65952;51.440;-2.054;2023-02-01T01:39:14;101281.25;;;5.16;71.74
77023;BME280;65952;51.440;-2.054;2023-02-01T01:41:39;101282.44;;;5.12;71.79
77023;BME280;65952;51.440;-2.054;2023-02-01T01:44:06;101280.63;;;5.13;71.77
77023;BME280;65952;51.440;-2.054;2023-02-01T01:46:51;101282.00;;;5.18;71.39
77023;BME280;65952;51.440;-2.054;2023-02-01T01:49:20;101287.22;;;5.20;71.13
77023;BME280;65952;51.440;-2.054;2023-02-01T01:51:56;101282.00;;;5.18;71.37
77023;BME280;65952;51.440;-2.054;2023-02-01T01:54:31;101290.53;;;5.24;71.27
77023;BME280;65952;51.440;-2.054;2023-02-01T01:57:01;101292.94;;;5.27;71.42
77023;BME280;65952;51.440;-2.054;2023-02-01T01:59:29;101289.00;;;5.32;71.09
77023;BME280;65952;51.440;-2.054;2023-02-01T02:01:56;101284.22;;;5.37;70.99
77023;BME280;65952;51.440;-2.054;2023-02-01T02:04:22;101282.56;;;5.48;70.52
77023;BME280;65952;51.440;-2.054;2023-02-01T02:09:22;101289.16;;;5.55;70.50
77023;BME280;65952;51.440;-2.054;2023-02-01T02:11:47;101291.28;;;5.63;70.40
77023;BME280;65952;51.440;-2.054;2023-02-01T02:14:15;101294.06;;;5.61;70.51
77023;BME280;65952;51.440;-2.054;2023-02-01T02:38:45;101273.56;;;5.62;71.35
77023;BME280;65952;51.440;-2.054;2023-02-01T02:47:23;101277.31;;;5.59;71.46
77023;BME280;65952;51.440;-2.054;2023-02-01T02:53:00;101274.31;;;5.64;71.30
77023;BME280;65952;51.440;-2.054;2023-02-01T02:55:46;101277.50;;;5.69;71.08
77023;BME280;65952;51.440;-2.054;2023-02-01T02:58:13;101278.47;;;5.68;70.99
77023;BME280;65952;51.440;-2.054;2023-02-01T03:00:59;101285.38;;;5.70;70.96
77023;BME280;65952;51.440;-2.054;2023-02-01T03:03:44;101286.97;;;5.73;70.77
77023;BME280;65952;51.440;-2.054;2023-02-01T03:06:28;101282.16;;;5.78;70.49
77023;BME280;65952;51.440;-2.054;2023-02-01T03:08:57;101272.81;;;5.73;70.85
77023;BME280;65952;51.440;-2.054;2023-02-01T03:11:24;101270.84;;;5.75;70.72
77023;BME280;65952;51.440;-2.054;2023-02-01T03:14:11;101279.41;;;5.67;70.98
77023;BME280;65952;51.440;-2.054;2023-02-01T03:16:53;101274.66;;;5.59;71.27
77023;BME280;65952;51.440;-2.054;2023-02-01T03:19:22;101270.91;;;5.62;71.22
77023;BME280;65952;51.440;-2.054;2023-02-01T03:22:04;101267.06;;;5.66;71.08
77023;BME280;65952;51.440;-2.054;2023-02-01T03:27:13;101257.03;;;5.69;71.20
77023;BME280;65952;51.440;-2.054;2023-02-01T03:32:09;101266.41;;;5.75;71.09
77023;BME280;65952;51.440;-2.054;2023-02-01T03:34:35;101261.41;;;5.70;71.04
77023;BME280;65952;51.440;-2.054;2023-02-01T03:37:04;101258.63;;;5.72;70.95
77023;BME280;65952;51.440;-2.054;2023-02-01T03:39:32;101266.59;;;5.72;70.81
77023;BME280;65952;51.440;-2.054;2023-02-01T03:42:03;101281.13;;;5.68;71.19
77023;BME280;65952;51.440;-2.054;2023-02-01T03:44:54;101267.81;;;5.68;71.10
77023;BME280;65952;51.440;-2.054;2023-02-01T03:47:27;101264.13;;;5.58;71.32
77023;BME280;65952;51.440;-2.054;2023-02-01T03:49:59;101265.38;;;5.65;71.08
77023;BME280;65952;51.440;-2.054;2023-02-01T03:52:38;101259.38;;;5.74;70.87
77023;BME280;65952;51.440;-2.054;2023-02-01T03:55:06;101252.56;;;5.70;71.12
77023;BME280;65952;51.440;-2.054;2023-02-01T03:57:35;101247.75;;;5.75;70.68
77023;BME280;65952;51.440;-2.054;2023-02-01T04:00:18;101233.97;;;5.81;70.55
77023;BME280;65952;51.440;-2.054;2023-02-01T04:02:45;101228.84;;;5.78;70.86
77023;BME280;65952;51.440;-2.054;2023-02-01T04:05:10;101228.69;;;5.68;71.04
77023;BME280;65952;51.440;-2.054;2023-02-01T04:07:36;101222.31;;;5.71;71.02
77023;BME280;65952;51.440;-2.054;2023-02-01T04:10:02;101220.09;;;5.65;71.47
77023;BME280;65952;51.440;-2.054;2023-02-01T04:12:28;101224.56;;;5.64;71.39
77023;BME280;65952;51.440;-2.054;2023-02-01T04:14:54;101225.94;;;5.70;71.48
77023;BME280;65952;51.440;-2.054;2023-02-01T04:17:19;101217.50;;;5.63;71.73
77023;BME280;65952;51.440;-2.054;2023-02-01T04:19:44;101218.16;;;5.67;71.81
77023;BME280;65952;51.440;-2.054;2023-02-01T04:22:10;101214.97;;;5.62;71.98
77023;BME280;65952;51.440;-2.054;2023-02-01T04:24:35;101214.69;;;5.53;72.31
77023;BME280;65952;51.440;-2.054;2023-02-01T04:27:01;101212.88;;;5.54;72.03
77023;BME280;65952;51.440;-2.054;2023-02-01T04:29:27;101211.28;;;5.51;72.03
77023;BME280;65952;51.440;-2.054;2023-02-01T04:31:53;101211.97;;;5.42;72.42
77023;BME280;65952;51.440;-2.054;2023-02-01T04:34:18;101218.72;;;5.35;72.83
77023;BME280;65952;51.440;-2.054;2023-02-01T04:36:44;101230.84;;;5.39;72.58
77023;BME280;65952;51.440;-2.054;2023-02-01T04:39:09;101235.81;;;5.44;72.47
77023;BME280;65952;51.440;-2.054;2023-02-01T04:41:35;101234.00;;;5.44;72.65
77023;BME280;65952;51.440;-2.054;2023-02-01T04:44:00;101239.06;;;5.36;72.79
77023;BME280;65952;51.440;-2.054;2023-02-01T04:46:26;101241.28;;;5.42;72.68
77023;BME280;65952;51.440;-2.054;2023-02-01T04:48:51;101233.72;;;5.36;73.20
77023;BME280;65952;51.440;-2.054;2023-02-01T04:51:17;101242.00;;;5.44;73.07
77023;BME280;65952;51.440;-2.054;2023-02-01T04:53:43;101229.31;;;5.48;72.92
77023;BME280;65952;51.440;-2.054;2023-02-01T04:56:09;101224.09;;;5.46;73.36
77023;BME280;65952;51.440;-2.054;2023-02-01T04:58:34;101234.44;;;5.38;73.71
77023;BME280;65952;51.440;-2.054;2023-02-01T05:01:05;101227.88;;;5.31;74.34
77023;BME280;65952;51.440;-2.054;2023-02-01T05:03:34;101220.63;;;5.33;74.56
77023;BME280;65952;51.440;-2.054;2023-02-01T05:06:00;101214.22;;;5.35;74.32
77023;BME280;65952;51.440;-2.054;2023-02-01T05:08:26;101219.22;;;5.40;74.39
77023;BME280;65952;51.440;-2.054;2023-02-01T05:10:52;101223.06;;;5.36;74.29
77023;BME280;65952;51.440;-2.054;2023-02-01T05:13:18;101223.16;;;5.34;74.55
77023;BME280;65952;51.440;-2.054;2023-02-01T05:16:02;101231.28;;;5.33;74.66
77023;BME280;65952;51.440;-2.054;2023-02-01T05:18:27;101234.16;;;5.30;74.66
77023;BME280;65952;51.440;-2.054;2023-02-01T05:20:52;101240.97;;;5.34;74.87
77023;BME280;65952;51.440;-2.054;2023-02-01T05:23:18;101242.56;;;5.36;74.63
77023;BME280;65952;51.440;-2.054;2023-02-01T05:25:43;101239.56;;;5.41;74.34
77023;BME280;65952;51.440;-2.054;2023-02-01T05:28:09;101250.34;;;5.40;74.43
77023;BME280;65952;51.440;-2.054;2023-02-01T05:30:34;101240.53;;;5.40;74.39
77023;BME280;65952;51.440;-2.054;2023-02-01T05:33:01;101251.06;;;5.42;74.48
77023;BME280;65952;51.440;-2.054;2023-02-01T05:35:26;101246.38;;;5.45;74.45
77023;BME280;65952;51.440;-2.054;2023-02-01T05:37:52;101243.81;;;5.44;74.43
77023;BME280;65952;51.440;-2.054;2023-02-01T05:40:17;101237.94;;;5.51;74.44
77023;BME280;65952;51.440;-2.054;2023-02-01T05:42:42;101242.13;;;5.67;73.95
77023;BME280;65952;51.440;-2.054;2023-02-01T05:45:08;101228.59;;;5.70;74.02
77023;BME280;65952;51.440;-2.054;2023-02-01T05:47:34;101234.63;;;5.72;73.79
77023;BME280;65952;51.440;-2.054;2023-02-01T05:49:59;101223.53;;;5.78;73.72
77023;BME280;65952;51.440;-2.054;2023-02-01T05:52:24;101213.16;;;5.86;73.42
77023;BME280;65952;51.440;-2.054;2023-02-01T05:54:50;101197.41;;;5.95;73.22
77023;BME280;65952;51.440;-2.054;2023-02-01T05:57:15;101211.72;;;5.94;73.15
77023;BME280;65952;51.440;-2.054;2023-02-01T05:59:41;101198.41;;;5.94;73.02
77023;BME280;65952;51.440;-2.054;2023-02-01T06:02:07;101194.53;;;5.98;73.01
77023;BME280;65952;51.440;-2.054;2023-02-01T06:04:33;101198.06;;;5.98;72.78
77023;BME280;65952;51.440;-2.054;2023-02-01T06:06:59;101186.22;;;6.03;72.59
77023;BME280;65952;51.440;-2.054;2023-02-01T06:09:24;101180.03;;;6.02;72.62
77023;BME280;65952;51.440;-2.054;2023-02-01T06:11:50;101168.28;;;6.05;72.11
77023;BME280;65952;51.440;-2.054;2023-02-01T06:14:15;101169.03;;;6.07;71.88
77023;BME280;65952;51.440;-2.054;2023-02-01T06:16:46;101170.81;;;6.06;71.63
77023;BME280;65952;51.440;-2.054;2023-02-01T06:19:13;101161.88;;;6.07;71.63
77023;BME280;65952;51.440;-2.054;2023-02-01T06:21:38;101160.53;;;6.01;71.88
77023;BME280;65952;51.440;-2.054;2023-02-01T06:24:04;101176.41;;;6.03;71.57
77023;BME280;65952;51.440;-2.054;2023-02-01T06:26:29;101169.03;;;6.07;71.66
77023;BME280;65952;51.440;-2.054;2023-02-01T06:28:55;101170.47;;;6.11;71.21
77023;BME280;65952;51.440;-2.054;2023-02-01T06:31:20;101177.41;;;6.13;70.95
77023;BME280;65952;51.440;-2.054;2023-02-01T06:33:46;101184.44;;;6.14;70.68
77023;BME280;65952;51.440;-2.054;2023-02-01T06:36:12;101181.63;;;6.16;70.46
77023;BME280;65952;51.440;-2.054;2023-02-01T06:38:38;101188.94;;;6.14;70.50
77023;BME280;65952;51.440;-2.054;2023-02-01T06:41:05;101194.44;;;5.99;70.77
77023;BME280;65952;51.440;-2.054;2023-02-01T06:43:31;101185.09;;;5.94;70.75
77023;BME280;65952;51.440;-2.054;2023-02-01T06:46:09;101192.78;;;5.85;71.02
77023;BME280;65952;51.440;-2.054;2023-02-01T06:48:35;101194.00;;;5.81;70.93
77023;BME280;65952;51.440;-2.054;2023-02-01T06:51:00;101200.53;;;5.89;70.21
77023;BME280;65952;51.440;-2.054;2023-02-01T06:53:25;101198.00;;;5.87;70.66
77023;BME280;65952;51.440;-2.054;2023-02-01T06:55:56;101203.78;;;5.81;70.96
77023;BME280;65952;51.440;-2.054;2023-02-01T06:58:22;101202.44;;;5.75;71.33
77023;BME280;65952;51.440;-2.054;2023-02-01T07:00:49;101204.03;;;5.78;71.24
77023;BME280;65952;51.440;-2.054;2023-02-01T07:03:15;101200.41;;;5.79;71.19
77023;BME280;65952;51.440;-2.054;2023-02-01T07:05:41;101208.97;;;5.71;71.51
77023;BME280;65952;51.440;-2.054;2023-02-01T07:08:06;101217.19;;;5.68;71.69
77023;BME280;65952;51.440;-2.054;2023-02-01T07:10:33;101213.31;;;5.72;71.58
77023;BME280;65952;51.440;-2.054;2023-02-01T07:12:59;101217.81;;;5.72;71.71
77023;BME280;65952;51.440;-2.054;2023-02-01T07:15:24;101214.31;;;5.71;71.72
77023;BME280;65952;51.440;-2.054;2023-02-01T07:17:50;101222.91;;;5.75;71.62
77023;BME280;65952;51.440;-2.054;2023-02-01T07:20:16;101221.69;;;5.67;71.70
77023;BME280;65952;51.440;-2.054;2023-02-01T07:22:41;101215.22;;;5.59;72.21
77023;BME280;65952;51.440;-2.054;2023-02-01T07:25:07;101220.41;;;5.60;72.02
77023;BME280;65952;51.440;-2.054;2023-02-01T07:27:34;101213.38;;;5.59;72.08
77023;BME280;65952;51.440;-2.054;2023-02-01T07:30:00;101219.66;;;5.58;72.04
77023;BME280;65952;51.440;-2.054;2023-02-01T07:32:28;101212.75;;;5.56;72.20
77023;BME280;65952;51.440;-2.054;2023-02-01T07:34:53;101222.47;;;5.57;72.15
77023;BME280;65952;51.440;-2.054;2023-02-01T07:37:18;101224.16;;;5.58;72.26
77023;BME280;65952;51.440;-2.054;2023-02-01T07:39:44;101209.97;;;5.57;71.63
77023;BME280;65952;51.440;-2.054;2023-02-01T07:42:09;101216.16;;;5.58;71.99
77023;BME280;65952;51.440;-2.054;2023-02-01T07:44:35;101206.59;;;5.55;72.46
77023;BME280;65952;51.440;-2.054;2023-02-01T07:47:00;101214.69;;;5.53;72.26
77023;BME280;65952;51.440;-2.054;2023-02-01T07:49:26;101211.91;;;5.55;72.58
77023;BME280;65952;51.440;-2.054;2023-02-01T07:51:51;101213.13;;;5.51;72.62
77023;BME280;65952;51.440;-2.054;2023-02-01T07:54:17;101202.34;;;5.52;72.58
77023;BME280;65952;51.440;-2.054;2023-02-01T07:56:42;101201.03;;;5.58;72.44
77023;BME280;65952;51.440;-2.054;2023-02-01T07:59:08;101207.66;;;5.52;72.56
77023;BME280;65952;51.440;-2.054;2023-02-01T08:01:33;101207.47;;;5.67;72.33
77023;BME280;65952;51.440;-2.054;2023-02-01T08:04:00;101208.44;;;5.66;72.36
77023;BME280;65952;51.440;-2.054;2023-02-01T08:06:28;101210.38;;;5.64;72.29
77023;BME280;65952;51.440;-2.054;2023-02-01T08:08:54;101210.91;;;5.69;72.29
77023;BME280;65952;51.440;-2.054;2023-02-01T08:11:21;101207.31;;;5.81;71.96
77023;BME280;65952;51.440;-2.054;2023-02-01T08:13:47;101209.47;;;5.76;71.96
77023;BME280;65952;51.440;-2.054;2023-02-01T08:16:14;101212.03;;;5.78;72.12
77023;BME280;65952;51.440;-2.054;2023-02-01T08:18:41;101219.16;;;5.77;72.43
77023;BME280;65952;51.440;-2.054;2023-02-01T08:21:11;101205.81;;;5.77;72.18
77023;BME280;65952;51.440;-2.054;2023-02-01T08:23:38;101194.00;;;5.81;72.04
77023;BME280;65952;51.440;-2.054;2023-02-01T08:26:15;101206.41;;;5.94;71.82
77023;BME280;65952;51.440;-2.054;2023-02-01T08:28:43;101193.06;;;5.94;71.89
77023;BME280;65952;51.440;-2.054;2023-02-01T08:31:12;101200.09;;;5.95;71.92
77023;BME280;65952;51.440;-2.054;2023-02-01T08:33:40;101197.19;;;5.98;71.78
77023;BME280;65952;51.440;-2.054;2023-02-01T08:36:07;101198.00;;;6.11;71.31
77023;BME280;65952;51.440;-2.054;2023-02-01T08:38:35;101199.69;;;6.12;71.50
77023;BME280;65952;51.440;-2.054;2023-02-01T08:41:04;101207.97;;;6.21;71.35
77023;BME280;65952;51.440;-2.054;2023-02-01T08:43:30;101203.25;;;6.24;71.17
77023;BME280;65952;51.440;-2.054;2023-02-01T08:45:56;101207.16;;;6.31;70.87
77023;BME280;65952;51.440;-2.054;2023-02-01T08:48:21;101208.94;;;6.31;71.08
77023;BME280;65952;51.440;-2.054;2023-02-01T08:50:46;101215.50;;;6.38;70.70
77023;BME280;65952;51.440;-2.054;2023-02-01T08:53:12;101211.13;;;6.37;70.80
77023;BME280;65952;51.440;-2.054;2023-02-01T08:55:39;101219.16;;;6.48;70.51
77023;BME280;65952;51.440;-2.054;2023-02-01T08:58:04;101225.97;;;6.64;70.32
77023;BME280;65952;51.440;-2.054;2023-02-01T09:00:30;101226.97;;;6.74;69.82
77023;BME280;65952;51.440;-2.054;2023-02-01T09:02:55;101215.91;;;6.90;69.21
77023;BME280;65952;51.440;-2.054;2023-02-01T09:05:21;101228.63;;;6.98;69.31
77023;BME280;65952;51.440;-2.054;2023-02-01T09:07:48;101228.41;;;7.01;69.19
77023;BME280;65952;51.440;-2.054;2023-02-01T09:10:14;101232.28;;;7.20;68.18
77023;BME280;65952;51.440;-2.054;2023-02-01T09:12:39;101231.78;;;7.37;67.71
77023;BME280;65952;51.440;-2.054;2023-02-01T09:15:05;101223.84;;;7.36;68.17
77023;BME280;65952;51.440;-2.054;2023-02-01T09:17:32;101216.84;;;7.35;68.13
77023;BME280;65952;51.440;-2.054;2023-02-01T09:19:58;101222.41;;;7.43;67.67
77023;BME280;65952;51.440;-2.054;2023-02-01T09:22:23;101219.13;;;7.39;68.25
77023;BME280;65952;51.440;-2.054;2023-02-01T09:24:48;101235.16;;;7.28;68.43
77023;BME280;65952;51.440;-2.054;2023-02-01T09:27:14;101237.31;;;7.45;68.08
77023;BME280;65952;51.440;-2.054;2023-02-01T09:29:39;101233.75;;;8.00;66.57
77023;BME280;65952;51.440;-2.054;2023-02-01T09:32:05;101221.09;;;8.87;63.61
77023;BME280;65952;51.440;-2.054;2023-02-01T09:34:32;101223.69;;;9.78;60.49
77023;BME280;65952;51.440;-2.054;2023-02-01T09:36:57;101219.50;;;10.62;57.88
77023;BME280;65952;51.440;-2.054;2023-02-01T09:39:22;101226.06;;;10.87;56.72
77023;BME280;65952;51.440;-2.054;2023-02-01T09:42:07;101233.72;;;11.38;55.11
77023;BME280;65952;51.440;-2.054;2023-02-01T09:47:03;101246.16;;;12.21;53.04
77023;BME280;65952;51.440;-2.054;2023-02-01T09:49:32;101242.84;;;12.45;51.97
77023;BME280;65952;51.440;-2.054;2023-02-01T09:52:01;101232.56;;;12.75;51.27
77023;BME280;65952;51.440;-2.054;2023-02-01T09:54:44;101235.81;;;13.13;50.17
77023;BME280;65952;51.440;-2.054;2023-02-01T09:57:28;101240.78;;;13.00;50.11
77023;BME280;65952;51.440;-2.054;2023-02-01T10:00:12;101251.47;;;13.18;50.20
77023;BME280;65952;51.440;-2.054;2023-02-01T10:02:41;101260.59;;;13.25;50.08
77023;BME280;65952;51.440;-2.054;2023-02-01T10:05:13;101250.13;;;13.14;50.22
77023;BME280;65952;51.440;-2.054;2023-02-01T10:10:52;101257.03;;;13.59;48.82
77023;BME280;65952;51.440;-2.054;2023-02-01T10:13:49;101262.72;;;13.40;49.17
77023;BME280;65952;51.440;-2.054;2023-02-01T10:21:58;101254.41;;;13.84;48.34
77023;BME280;65952;51.440;-2.054;2023-02-01T10:27:11;101249.69;;;14.27;47.37
77023;BME280;65952;51.440;-2.054;2023-02-01T10:29:39;101259.16;;;14.07;47.43
77023;BME280;65952;51.440;-2.054;2023-02-01T10:32:15;101258.59;;;13.70;48.39
77023;BME280;65952;51.440;-2.054;2023-02-01T10:34:42;101269.06;;;13.30;48.92
77023;BME280;65952;51.440;-2.054;2023-02-01T10:37:29;101270.22;;;13.28;49.54
77023;BME280;65952;51.440;-2.054;2023-02-01T10:39:56;101273.53;;;13.40;49.30
77023;BME280;65952;51.440;-2.054;2023-02-01T10:42:27;101270.91;;;13.81;48.28
77023;BME280;65952;51.440;-2.054;2023-02-01T10:44:56;101255.56;;;13.73;47.99
77023;BME280;65952;51.440;-2.054;2023-02-01T10:47:23;101260.13;;;13.89;48.18
77023;BME280;65952;51.440;-2.054;2023-02-01T10:55:46;101263.59;;;13.14;50.05
77023;BME280;65952;51.440;-2.054;2023-02-01T10:58:17;101259.34;;;13.38;49.17
77023;BME280;65952;51.440;-2.054;2023-02-01T11:00:51;101265.81;;;13.61;48.57
77023;BME280;65952;51.440;-2.054;2023-02-01T11:05:55;101271.09;;;13.37;49.55
77023;BME280;65952;51.440;-2.054;2023-02-01T11:08:20;101260.22;;;13.46;49.05
77023;BME280;65952;51.440;-2.054;2023-02-01T11:10:46;101268.78;;;13.07;49.95
77023;BME280;65952;51.440;-2.054;2023-02-01T11:13:14;101273.69;;;12.77;50.93
77023;BME280;65952;51.440;-2.054;2023-02-01T11:15:47;101280.91;;;12.32;51.57
77023;BME280;65952;51.440;-2.054;2023-02-01T11:18:26;101289.91;;;12.59;51.80
77023;BME280;65952;51.440;-2.054;2023-02-01T11:20:52;101283.38;;;12.70;51.78
77023;BME280;65952;51.440;-2.054;2023-02-01T11:23:23;101276.19;;;13.05;51.22
77023;BME280;65952;51.440;-2.054;2023-02-01T11:25:54;101281.47;;;13.15;50.21
77023;BME280;65952;51.440;-2.054;2023-02-01T11:28:23;101289.19;;;13.10;50.55
77023;BME280;65952;51.440;-2.054;2023-02-01T11:30:51;101299.78;;;13.03;50.44
77023;BME280;65952;51.440;-2.054;2023-02-01T11:33:21;101293.00;;;12.99;51.30
77023;BME280;65952;51.440;-2.054;2023-02-01T11:35:51;101287.66;;;12.55;51.27
77023;BME280;65952;51.440;-2.054;2023-02-01T11:38:30;101293.56;;;12.14;52.59
77023;BME280;65952;51.440;-2.054;2023-02-01T11:41:21;101299.44;;;11.81;53.85
77023;BME280;65952;51.440;-2.054;2023-02-01T11:43:53;101291.09;;;11.57;54.38
77023;BME280;65952;51.440;-2.054;2023-02-01T11:46:22;101295.16;;;11.33;55.80
77023;BME280;65952;51.440;-2.054;2023-02-01T11:48:51;101286.09;;;11.06;56.38
77023;BME280;65952;51.440;-2.054;2023-02-01T11:51:57;101289.41;;;10.90;56.75
77023;BME280;65952;51.440;-2.054;2023-02-01T11:57:41;101282.28;;;10.32;58.39
77023;BME280;65952;51.440;-2.054;2023-02-01T12:09:10;101287.19;;;9.97;59.94
77023;BME280;65952;51.440;-2.054;2023-02-01T12:17:10;101300.84;;;9.55;60.94
77023;BME280;65952;51.440;-2.054;2023-02-01T12:19:56;101291.66;;;9.48;60.97
77023;BME280;65952;51.440;-2.054;2023-02-01T12:22:45;101286.81;;;9.41;61.89
77023;BME280;65952;51.440;-2.054;2023-02-01T12:38:46;101290.78;;;9.37;62.32
77023;BME280;65952;51.440;-2.054;2023-02-01T12:41:41;101296.44;;;9.44;62.60
77023;BME280;65952;51.440;-2.054;2023-02-01T12:44:31;101299.22;;;9.33;62.98
77023;BME280;65952;51.440;-2.054;2023-02-01T12:47:03;101294.44;;;9.36;63.23
77023;BME280;65952;51.440;-2.054;2023-02-01T12:52:44;101295.69;;;9.42;63.02
77023;BME280;65952;51.440;-2.054;2023-02-01T12:57:58;101302.03;;;9.31;63.63
77023;BME280;65952;51.440;-2.054;2023-02-01T13:03:36;101284.88;;;9.13;63.78
77023;BME280;65952;51.440;-2.054;2023-02-01T13:06:15;101289.31;;;9.23;63.94
77023;BME280;65952;51.440;-2.054;2023-02-01T13:08:51;101298.19;;;9.24;63.92
77023;BME280;65952;51.440;-2.054;2023-02-01T13:11:29;101295.56;;;9.34;63.52
77023;BME280;65952;51.440;-2.054;2023-02-01T13:16:47;101300.50;;;9.38;63.83
77023;BME280;65952;51.440;-2.054;2023-02-01T13:19:16;101303.00;;;9.30;64.46
77023;BME280;65952;51.440;-2.054;2023-02-01T13:21:47;101288.59;;;9.21;64.67
77023;BME280;65952;51.440;-2.054;2023-02-01T13:26:56;101279.44;;;9.24;65.09
77023;BME280;65952;51.440;-2.054;2023-02-01T13:29:23;101281.97;;;9.16;65.26
77023;BME280;65952;51.440;-2.054;2023-02-01T13:42:27;101258.97;;;9.23;66.15
77023;BME280;65952;51.440;-2.054;2023-02-01T13:44:59;101256.88;;;9.26;66.48
77023;BME280;65952;51.440;-2.054;2023-02-01T13:47:32;101259.00;;;9.33;65.67
77023;BME280;65952;51.440;-2.054;2023-02-01T13:52:40;101262.53;;;9.33;66.16
77023;BME280;65952;51.440;-2.054;2023-02-01T13:55:24;101253.94;;;9.39;66.21
77023;BME280;65952;51.440;-2.054;2023-02-01T14:00:41;101245.91;;;9.30;66.12
77023;BME280;65952;51.440;-2.054;2023-02-01T14:03:18;101243.94;;;9.41;65.73
77023;BME280;65952;51.440;-2.054;2023-02-01T14:08:14;101238.28;;;9.44;65.81
77023;BME280;65952;51.440;-2.054;2023-02-01T14:10:55;101242.09;;;9.42;65.83
77023;BME280;65952;51.440;-2.054;2023-02-01T14:13:31;101240.56;;;9.49;66.00
77023;BME280;65952;51.440;-2.054;2023-02-01T14:18:49;101227.31;;;9.48;66.26
77023;BME280;65952;51.440;-2.054;2023-02-01T14:34:14;101258.94;;;9.54;65.93
77023;BME280;65952;51.440;-2.054;2023-02-01T14:36:50;101260.88;;;9.52;66.00
77023;BME280;65952;51.440;-2.054;2023-02-01T14:55:53;101261.13;;;9.29;66.74
77023;BME280;65952;51.440;-2.054;2023-02-01T14:58:32;101265.31;;;9.22;67.07
77023;BME280;65952;51.440;-2.054;2023-02-01T15:01:06;101268.19;;;9.30;66.87
77023;BME280;65952;51.440;-2.054;2023-02-01T15:04:04;101263.41;;;9.34;66.46
77023;BME280;65952;51.440;-2.054;2023-02-01T15:09:13;101259.75;;;9.35;67.25
77023;BME280;65952;51.440;-2.054;2023-02-01T15:12:03;101260.56;;;9.35;66.87
77023;BME280;65952;51.440;-2.054;2023-02-01T15:15:22;101269.34;;;9.37;67.31
77023;BME280;65952;51.440;-2.054;2023-02-01T15:17:29;101269.63;;;9.44;66.88
77023;BME280;65952;51.440;-2.054;2023-02-01T15:22:29;101268.94;;;9.52;67.40
77023;BME280;65952;51.440;-2.054;2023-02-01T15:24:57;101284.75;;;9.55;67.64
77023;BME280;65952;51.440;-2.054;2023-02-01T15:27:23;101267.81;;;9.54;68.41
77023;BME280;65952;51.440;-2.054;2023-02-01T15:29:49;101278.38;;;9.46;68.66
77023;BME280;65952;51.440;-2.054;2023-02-01T15:32:37;101281.03;;;9.36;68.45
77023;BME280;65952;51.440;-2.054;2023-02-01T15:41:14;101292.69;;;9.25;69.50
77023;BME280;65952;51.440;-2.054;2023-02-01T15:46:19;101294.97;;;9.30;69.30
77023;BME280;65952;51.440;-2.054;2023-02-01T15:48:50;101300.47;;;9.29;69.41
77023;BME280;65952;51.440;-2.054;2023-02-01T15:51:19;101301.84;;;9.23;69.42